createdAt,value
2018-12-12T00:02:14.555Z,10.95
2018-12-12T00:04:42.524Z,12.47
2018-12-12T00:07:10.836Z,13.28
2018-12-12T00:09:38.571Z,14.33
2018-12-12T00:12:07.191Z,13.15
2018-12-12T00:14:34.979Z,13.95
2018-12-12T00:17:03.200Z,12.43
2018-12-12T00:19:31.104Z,11.78
2018-12-12T00:21:58.863Z,13.10
2018-12-12T00:24:26.621Z,13.08
2018-12-12T00:26:55.143Z,13.28
2018-12-12T00:29:23.008Z,13.25
2018-12-12T00:31:50.857Z,12.60
2018-12-12T00:34:18.625Z,13.22
2018-12-12T00:36:46.917Z,12.88
2018-12-12T00:39:14.749Z,13.60
2018-12-12T00:41:42.665Z,12.63
2018-12-12T00:44:11.986Z,13.40
2018-12-12T00:46:39.800Z,13.10
2018-12-12T00:49:07.629Z,13.32
2018-12-12T00:51:35.703Z,12.18
2018-12-12T00:54:03.689Z,13.30
2018-12-12T00:56:31.469Z,12.90
2018-12-12T00:58:59.271Z,13.32
2018-12-12T01:01:27.437Z,13.43
2018-12-12T01:03:55.418Z,12.93
2018-12-12T01:06:23.224Z,12.68
2018-12-12T01:08:51.834Z,12.90
2018-12-12T01:11:26.268Z,12.82
2018-12-12T01:13:54.601Z,11.68
2018-12-12T01:16:22.673Z,11.08
2018-12-12T01:18:50.502Z,12.33
2018-12-12T01:21:18.576Z,13.25
2018-12-12T01:23:46.719Z,11.88
2018-12-12T01:26:14.447Z,13.15
2018-12-12T01:28:42.304Z,11.80
2018-12-12T01:31:10.187Z,13.32
2018-12-12T01:33:38.083Z,11.18
2018-12-12T01:36:05.898Z,11.22
2018-12-12T01:38:33.660Z,11.10
2018-12-12T01:41:01.414Z,12.05
2018-12-12T01:43:29.139Z,12.13
2018-12-12T01:45:56.902Z,10.68
2018-12-12T01:48:24.739Z,11.12
2018-12-12T01:50:53.911Z,10.85
2018-12-12T01:53:22.117Z,11.28
2018-12-12T01:55:49.899Z,11.18
2018-12-12T01:58:17.652Z,10.25
2018-12-12T02:00:45.383Z,11.43
2018-12-12T02:03:13.128Z,11.18
2018-12-12T02:05:40.894Z,10.80
2018-12-12T02:08:08.807Z,10.75
2018-12-12T02:10:36.763Z,10.63
2018-12-12T02:13:10.643Z,11.05
2018-12-12T02:15:38.389Z,10.95
2018-12-12T02:18:06.157Z,11.35
2018-12-12T02:20:33.904Z,10.13
2018-12-12T02:23:01.707Z,10.63
2018-12-12T02:25:29.461Z,10.70
2018-12-12T02:27:57.312Z,9.95
2018-12-12T02:30:25.098Z,11.38
2018-12-12T02:32:52.876Z,11.48
2018-12-12T02:35:22.205Z,12.43
2018-12-12T02:37:49.950Z,11.28
2018-12-12T02:40:17.731Z,11.08
2018-12-12T02:42:45.880Z,10.88
2018-12-12T02:45:13.608Z,11.35
2018-12-12T02:47:42.148Z,11.12
2018-12-12T02:50:09.938Z,11.35
2018-12-12T02:52:37.980Z,11.10
2018-12-12T02:55:05.854Z,10.93
2018-12-12T02:57:33.667Z,11.78
2018-12-12T03:00:01.917Z,11.05
2018-12-12T03:02:30.029Z,11.70
2018-12-12T03:04:57.790Z,11.57
2018-12-12T03:07:25.541Z,11.55
2018-12-12T03:09:53.317Z,10.95
2018-12-12T03:12:21.424Z,11.00
2018-12-12T03:14:49.180Z,10.95
2018-12-12T03:17:17.418Z,11.90
2018-12-12T03:19:45.168Z,11.63
2018-12-12T03:22:12.956Z,12.13
2018-12-12T03:24:41.185Z,11.18
2018-12-12T03:27:09.099Z,11.80
2018-12-12T03:29:36.854Z,10.90
2018-12-12T03:32:04.623Z,10.48
2018-12-12T03:34:32.376Z,11.35
2018-12-12T03:37:00.124Z,11.57
2018-12-12T03:39:28.115Z,11.22
2018-12-12T03:41:57.158Z,11.45
2018-12-12T03:44:24.945Z,10.58
2018-12-12T03:46:54.417Z,10.43
2018-12-12T03:49:22.695Z,11.35
2018-12-12T03:51:50.423Z,9.80
2018-12-12T03:54:18.162Z,10.60
2018-12-12T03:56:46.328Z,9.90
2018-12-12T03:59:14.093Z,9.60
2018-12-12T04:01:42.011Z,9.93
2018-12-12T04:04:09.730Z,9.13
2018-12-12T04:06:37.774Z,9.78
2018-12-12T04:09:06.022Z,9.20
2018-12-12T04:11:35.654Z,9.35
2018-12-12T04:14:03.716Z,9.33
2018-12-12T04:16:31.619Z,10.32
2018-12-12T04:18:59.614Z,8.35
2018-12-12T04:21:27.409Z,9.00
2018-12-12T04:23:55.178Z,9.53
2018-12-12T04:26:22.907Z,9.85
2018-12-12T04:28:50.710Z,8.85
2018-12-12T04:31:18.788Z,10.08
2018-12-12T04:33:47.155Z,10.23
2018-12-12T04:36:14.899Z,9.78
2018-12-12T04:38:43.125Z,9.60
2018-12-12T04:41:10.882Z,9.48
2018-12-12T04:43:39.468Z,10.25
2018-12-12T04:46:07.190Z,11.15
2018-12-12T04:48:34.965Z,10.65
2018-12-12T04:51:03.646Z,10.65
2018-12-12T04:53:31.474Z,10.43
2018-12-12T04:55:59.390Z,9.98
2018-12-12T04:58:27.242Z,9.53
2018-12-12T05:00:54.962Z,9.68
2018-12-12T05:03:22.776Z,10.15
2018-12-12T05:05:50.547Z,9.85
2018-12-12T05:08:18.679Z,11.03
2018-12-12T05:10:46.726Z,9.75
2018-12-12T05:13:14.475Z,10.03
2018-12-12T05:15:42.240Z,9.65
2018-12-12T05:18:10.448Z,11.25
2018-12-12T05:20:38.240Z,10.32
2018-12-12T05:23:06.051Z,10.38
2018-12-12T05:25:33.776Z,9.65
2018-12-12T05:28:02.087Z,11.38
2018-12-12T05:30:29.978Z,10.48
2018-12-12T05:32:57.719Z,11.57
2018-12-12T05:35:26.188Z,10.43
2018-12-12T05:37:53.983Z,11.12
2018-12-12T05:40:25.175Z,11.53
2018-12-12T05:42:53.170Z,10.50
2018-12-12T05:45:21.583Z,10.58
2018-12-12T05:47:49.383Z,11.75
2018-12-12T05:50:17.125Z,10.90
2018-12-12T05:52:48.561Z,11.83
2018-12-12T05:55:16.473Z,11.22
2018-12-12T05:57:44.719Z,10.08
2018-12-12T06:00:14.233Z,11.25
2018-12-12T06:02:44.860Z,10.75
2018-12-12T06:07:55.088Z,11.28
2018-12-12T06:10:23.134Z,11.78
2018-12-12T06:12:51.462Z,11.78
2018-12-12T06:15:19.574Z,11.22
2018-12-12T06:17:47.526Z,11.38
2018-12-12T06:20:17.244Z,9.73
2018-12-12T06:22:45.021Z,11.03
2018-12-12T06:25:13.165Z,11.03
2018-12-12T06:27:41.144Z,11.48
2018-12-12T06:30:09.117Z,10.93
2018-12-12T06:32:37.376Z,11.08
2018-12-12T06:35:06.356Z,12.37
2018-12-12T06:37:34.206Z,11.57
2018-12-12T06:40:02.163Z,11.40
2018-12-12T06:42:30.337Z,11.60
2018-12-12T06:44:58.085Z,12.15
2018-12-12T06:47:26.444Z,11.68
2018-12-12T06:49:55.158Z,11.97
2018-12-12T06:52:23.185Z,11.60
2018-12-12T06:54:51.124Z,12.93
2018-12-12T06:57:18.871Z,12.43
2018-12-12T06:59:47.274Z,12.43
2018-12-12T07:02:15.627Z,12.93
2018-12-12T07:04:43.615Z,12.88
2018-12-12T07:07:17.234Z,13.60
2018-12-12T07:09:45.953Z,11.88
2018-12-12T07:12:13.755Z,12.00
2018-12-12T07:14:43.287Z,12.28
2018-12-12T07:17:11.228Z,12.73
2018-12-12T07:19:39.062Z,13.40
2018-12-12T07:22:06.821Z,11.97
2018-12-12T07:24:34.647Z,11.93
2018-12-12T07:27:02.567Z,12.05
2018-12-12T07:29:31.454Z,12.53
2018-12-12T07:31:59.235Z,12.37
2018-12-12T07:34:26.990Z,12.05
2018-12-12T07:36:55.052Z,12.35
2018-12-12T07:39:23.224Z,15.13
2018-12-12T07:41:51.628Z,19.52
2018-12-12T07:44:19.427Z,16.17
2018-12-12T07:46:47.524Z,13.17
2018-12-12T07:49:17.634Z,13.53
2018-12-12T07:51:46.396Z,12.85
2018-12-12T07:54:14.249Z,13.47
2018-12-12T07:56:42.539Z,15.93
2018-12-12T07:59:10.347Z,22.47
2018-12-12T08:01:38.210Z,15.95
2018-12-12T08:04:06.590Z,13.38
2018-12-12T08:06:34.433Z,12.93
2018-12-12T08:09:02.413Z,13.53
2018-12-12T08:11:31.004Z,15.25
2018-12-12T08:13:59.474Z,14.33
2018-12-12T08:16:27.873Z,13.68
2018-12-12T08:19:01.124Z,12.65
2018-12-12T08:21:31.851Z,13.85
2018-12-12T08:23:59.620Z,16.25
2018-12-12T08:26:31.614Z,14.13
2018-12-12T08:29:02.018Z,14.43
2018-12-12T08:31:36.000Z,16.07
2018-12-12T08:34:08.861Z,16.27
2018-12-12T08:36:36.704Z,15.13
2018-12-12T08:39:05.923Z,15.80
2018-12-12T08:41:34.326Z,16.17
2018-12-12T08:44:02.187Z,16.23
2018-12-12T08:46:38.058Z,16.13
2018-12-12T08:49:08.232Z,14.53
2018-12-12T08:51:37.039Z,13.67
2018-12-12T08:54:05.574Z,13.83
2018-12-12T08:56:33.632Z,13.53
2018-12-12T08:59:01.971Z,16.27
2018-12-12T09:01:36.281Z,14.57
2018-12-12T09:04:04.191Z,16.03
2018-12-12T09:06:33.215Z,16.00
2018-12-12T09:09:01.975Z,14.87
2018-12-12T09:11:33.571Z,16.70
2018-12-12T09:14:01.455Z,18.20
2018-12-12T09:16:30.771Z,19.27
2018-12-12T09:18:58.784Z,19.45
2018-12-12T09:21:27.266Z,18.85
2018-12-12T09:23:55.265Z,17.85
2018-12-12T09:26:23.269Z,19.37
2018-12-12T09:28:51.384Z,19.07
2018-12-12T09:31:20.282Z,19.82
2018-12-12T09:33:48.827Z,20.15
2018-12-12T09:36:17.056Z,24.47
2018-12-12T09:38:45.813Z,24.30
2018-12-12T09:41:13.660Z,22.62
2018-12-12T09:43:42.895Z,23.67
2018-12-12T09:46:11.531Z,22.27
2018-12-12T09:48:39.420Z,23.65
2018-12-12T09:51:08.847Z,22.48
2018-12-12T09:53:36.630Z,21.97
2018-12-12T09:56:04.542Z,20.43
2018-12-12T09:58:32.838Z,22.60
2018-12-12T10:01:00.675Z,23.45
2018-12-12T10:03:31.214Z,22.62
2018-12-12T10:05:59.672Z,22.00
2018-12-12T10:08:28.133Z,22.10
2018-12-12T10:11:00.291Z,21.27
2018-12-12T10:13:28.901Z,20.72
2018-12-12T10:15:56.707Z,21.80
2018-12-12T10:18:24.562Z,21.53
2018-12-12T10:20:54.521Z,20.23
2018-12-12T10:23:23.337Z,19.87
2018-12-12T10:25:51.419Z,21.23
2018-12-12T10:28:19.908Z,20.73
2018-12-12T10:30:48.480Z,19.43
2018-12-12T10:33:16.980Z,21.03
2018-12-12T10:35:46.466Z,20.33
2018-12-12T10:38:15.408Z,19.27
2018-12-12T10:40:44.359Z,19.80
2018-12-12T10:43:15.954Z,22.23
2018-12-12T10:45:44.328Z,23.13
2018-12-12T10:48:15.995Z,19.67
2018-12-12T10:50:47.450Z,21.82
2018-12-12T10:53:18.505Z,20.30
2018-12-12T10:55:46.444Z,22.90
2018-12-12T10:58:15.606Z,30.57
2018-12-12T11:00:46.679Z,36.27
2018-12-12T11:03:20.604Z,20.30
2018-12-12T11:05:48.629Z,19.33
2018-12-12T11:08:16.568Z,18.17
2018-12-12T11:11:06.011Z,23.30
2018-12-12T11:13:35.804Z,19.30
2018-12-12T11:16:08.316Z,16.77
2018-12-12T11:18:36.363Z,16.40
2018-12-12T11:21:04.716Z,16.43
2018-12-12T11:23:35.715Z,14.97
2018-12-12T11:26:05.008Z,16.40
2018-12-12T11:28:33.655Z,15.23
2018-12-12T11:31:07.436Z,14.55
2018-12-12T11:33:35.360Z,14.47
2018-12-12T11:36:04.939Z,14.27
2018-12-12T11:38:35.255Z,13.80
2018-12-12T11:41:04.611Z,13.27
2018-12-12T11:43:34.269Z,14.73
2018-12-12T11:46:02.899Z,13.00
2018-12-12T11:48:32.291Z,12.70
2018-12-12T11:51:09.426Z,12.40
2018-12-12T11:53:39.239Z,13.13
2018-12-12T11:56:08.873Z,12.20
2018-12-12T11:58:38.812Z,14.60
2018-12-12T12:01:08.480Z,11.63
2018-12-12T12:04:01.062Z,14.58
2018-12-12T12:06:29.153Z,13.40
2018-12-12T12:12:05.441Z,13.37
2018-12-12T12:15:07.549Z,14.03
2018-12-12T12:17:36.591Z,12.30
2018-12-12T12:23:13.742Z,12.87
2018-12-12T12:25:41.846Z,13.20
2018-12-12T12:28:09.795Z,14.40
2018-12-12T12:30:38.049Z,14.07
2018-12-12T12:33:36.134Z,12.77
2018-12-12T12:36:04.100Z,13.87
2018-12-12T12:39:09.114Z,12.70
2018-12-12T12:41:37.697Z,13.10
2018-12-12T12:47:16.180Z,13.90
2018-12-12T12:50:21.693Z,13.83
2018-12-12T12:52:50.499Z,15.03
2018-12-12T12:55:19.684Z,14.33
2018-12-12T13:04:09.478Z,15.15
2018-12-12T13:06:34.008Z,15.35
2018-12-12T13:12:10.706Z,12.75
2018-12-12T13:14:38.851Z,13.60
2018-12-12T13:17:34.945Z,14.60
2018-12-12T13:20:05.996Z,13.90
2018-12-12T13:22:35.009Z,12.82
2018-12-12T13:25:04.040Z,13.40
2018-12-12T13:27:37.114Z,12.68
2018-12-12T13:30:35.988Z,12.00
2018-12-12T13:33:08.471Z,12.73
2018-12-12T13:38:45.149Z,12.75
2018-12-12T13:41:13.251Z,13.55
2018-12-12T13:44:12.303Z,13.03
2018-12-12T13:46:43.180Z,14.43
2018-12-12T13:52:20.963Z,13.22
2018-12-12T13:55:19.413Z,13.18
2018-12-12T13:57:48.554Z,12.73
2018-12-12T14:00:18.114Z,12.00
2018-12-12T14:05:54.387Z,12.07
2018-12-12T14:08:50.719Z,13.62
2018-12-12T14:11:18.704Z,13.88
2018-12-12T14:16:57.328Z,14.98
2018-12-12T14:19:52.556Z,12.28
2018-12-12T14:25:27.273Z,12.15
2018-12-12T14:27:55.747Z,12.88
2018-12-12T14:30:25.317Z,13.43
2018-12-12T14:39:21.210Z,11.65
2018-12-12T14:44:34.502Z,12.05
2018-12-12T14:47:02.478Z,14.13
2018-12-12T14:49:30.535Z,13.62
2018-12-12T14:51:59.517Z,13.10
2018-12-12T14:54:28.897Z,12.90
2018-12-12T15:00:06.671Z,14.95
2018-12-12T15:05:41.820Z,11.55
2018-12-12T15:11:18.677Z,12.90
2018-12-12T15:14:21.363Z,12.47
2018-12-12T15:16:50.358Z,12.47
2018-12-12T15:19:18.508Z,13.05
2018-12-12T15:24:54.955Z,14.45
2018-12-12T15:30:34.546Z,17.07
2018-12-12T15:36:10.466Z,15.05
2018-12-12T15:38:38.944Z,15.35
2018-12-12T15:41:08.060Z,17.52
2018-12-12T15:43:36.529Z,13.88
2018-12-12T15:46:04.278Z,14.15
2018-12-12T15:49:07.913Z,13.03
2018-12-12T15:51:35.859Z,14.40
2018-12-12T15:57:11.532Z,12.47
2018-12-12T15:59:39.967Z,14.73
2018-12-12T16:05:17.871Z,14.10
2018-12-12T16:07:46.716Z,14.87
2018-12-12T16:10:16.821Z,15.88
2018-12-12T16:12:45.177Z,15.08
2018-12-12T16:15:13.204Z,15.10
2018-12-12T16:20:51.331Z,15.00
2018-12-12T16:23:47.854Z,13.62
2018-12-12T16:26:17.198Z,20.12
2018-12-12T16:32:00.809Z,14.63
2018-12-12T16:34:42.786Z,15.10
2018-12-12T16:37:11.653Z,14.05
2018-12-12T16:39:39.926Z,16.23
2018-12-12T16:45:15.418Z,13.90
2018-12-12T16:47:45.298Z,13.28
2018-12-12T16:59:37.645Z,12.30
2018-12-12T17:05:14.547Z,17.05
2018-12-12T17:10:49.645Z,22.10
2018-12-12T17:16:25.752Z,16.70
2018-12-12T17:19:21.028Z,15.72
2018-12-12T17:21:50.476Z,17.77
2018-12-12T17:24:54.047Z,18.15
2018-12-12T17:27:24.409Z,17.45
2018-12-12T17:29:53.414Z,16.00
2018-12-12T17:32:22.678Z,14.33
2018-12-12T17:34:50.898Z,18.23
2018-12-12T17:40:26.770Z,15.88
2018-12-12T17:43:22.864Z,19.00
2018-12-12T17:45:51.803Z,18.20
2018-12-12T17:48:54.218Z,17.60
2018-12-12T17:51:22.682Z,16.55
2018-12-12T17:54:25.968Z,15.53
2018-12-12T17:56:55.196Z,17.07
2018-12-12T18:02:31.563Z,15.37
2018-12-12T18:11:11.769Z,19.57
2018-12-12T18:16:48.839Z,19.27
2018-12-12T18:19:17.731Z,19.32
2018-12-12T18:22:19.994Z,17.87
2018-12-12T18:24:47.760Z,17.12
2018-12-12T18:27:16.435Z,17.37
2018-12-12T18:30:05.253Z,15.73
2018-12-12T18:32:33.784Z,15.58
2018-12-12T18:35:01.812Z,16.32
2018-12-12T18:37:29.636Z,16.23
2018-12-12T18:39:58.167Z,16.15
2018-12-12T18:45:33.359Z,16.80
2018-12-12T18:48:01.609Z,18.62
2018-12-12T18:50:30.526Z,18.98
2018-12-12T18:52:58.750Z,17.77
2018-12-12T18:55:53.767Z,22.13
2018-12-12T18:58:22.046Z,19.60
2018-12-12T19:00:50.280Z,21.60
2018-12-12T19:03:18.689Z,20.37
2018-12-12T19:05:49.060Z,19.37
2018-12-12T19:08:16.816Z,18.45
2018-12-12T19:10:44.563Z,19.42
2018-12-12T19:13:14.056Z,18.32
2018-12-12T19:15:41.891Z,18.70
2018-12-12T19:18:10.689Z,20.37
2018-12-12T19:21:00.873Z,19.80
2018-12-12T19:23:29.314Z,21.93
2018-12-12T19:25:57.254Z,25.27
2018-12-12T19:28:25.041Z,23.20
2018-12-12T19:30:52.808Z,21.27
2018-12-12T19:33:21.468Z,21.15
2018-12-12T19:36:00.983Z,20.40
2018-12-12T19:38:28.751Z,21.07
2018-12-12T19:40:56.772Z,19.32
2018-12-12T19:43:24.718Z,18.82
2018-12-12T19:45:53.253Z,19.32
2018-12-12T19:48:21.264Z,20.25
2018-12-12T19:51:24.285Z,19.73
2018-12-12T19:53:52.149Z,20.12
2018-12-12T19:56:21.831Z,19.67
2018-12-12T19:58:50.500Z,19.80
2018-12-12T20:01:19.258Z,21.10
2018-12-12T20:04:21.842Z,18.67
2018-12-12T20:06:50.551Z,17.27
2018-12-12T20:09:18.543Z,17.57
2018-12-12T20:11:48.694Z,18.92
2018-12-12T20:14:20.417Z,17.70
2018-12-12T20:16:55.553Z,16.77
2018-12-12T20:19:24.701Z,14.78
2018-12-12T20:21:55.162Z,14.30
2018-12-12T20:27:32.724Z,12.55
2018-12-12T20:30:00.487Z,12.30
2018-12-12T20:32:29.282Z,9.73
2018-12-12T20:34:57.226Z,11.03
2018-12-12T20:37:55.705Z,10.65
2018-12-12T20:40:26.902Z,10.78
2018-12-12T20:42:56.792Z,9.88
2018-12-12T20:48:36.447Z,10.82
2018-12-12T20:51:04.319Z,9.48
2018-12-12T20:53:32.686Z,9.05
2018-12-12T20:56:01.442Z,9.08
2018-12-12T20:59:04.528Z,9.85
2018-12-12T21:01:35.233Z,11.83
2018-12-12T21:04:04.261Z,11.63
2018-12-12T21:12:47.563Z,10.30
2018-12-12T21:15:15.905Z,11.25
2018-12-12T21:17:43.760Z,11.15
2018-12-12T21:20:49.168Z,11.65
2018-12-12T21:23:17.192Z,10.60
2018-12-12T21:25:45.139Z,10.13
2018-12-12T21:28:13.852Z,11.50
2018-12-12T21:30:42.666Z,11.78
2018-12-12T21:33:34.403Z,10.38
2018-12-12T21:36:03.286Z,9.78
2018-12-12T21:38:31.144Z,9.30
2018-12-12T21:44:06.730Z,9.50
2018-12-12T21:46:34.626Z,9.43
2018-12-12T21:49:02.779Z,8.75
2018-12-12T21:51:30.852Z,7.50
2018-12-12T21:53:59.636Z,7.95
2018-12-12T21:56:27.506Z,9.10
2018-12-12T21:58:55.255Z,6.80
2018-12-12T22:04:30.213Z,7.20
2018-12-12T22:06:58.147Z,7.17
2018-12-12T22:09:25.855Z,6.78
2018-12-12T22:11:54.128Z,7.40
2018-12-12T22:14:22.100Z,6.92
2018-12-12T22:16:49.854Z,6.20
2018-12-12T22:19:18.244Z,6.62
2018-12-12T22:21:46.182Z,5.60
2018-12-12T22:24:13.915Z,6.70
2018-12-12T22:26:42.130Z,7.10
2018-12-12T22:29:13.187Z,7.45
2018-12-12T22:31:40.987Z,7.00
2018-12-12T22:34:09.107Z,6.97
2018-12-12T22:37:00.809Z,6.17
2018-12-12T22:39:28.523Z,6.67
2018-12-12T22:41:56.255Z,6.33
2018-12-12T22:44:24.567Z,5.95
2018-12-12T22:46:53.989Z,6.37
2018-12-12T22:49:21.743Z,5.28
2018-12-12T22:54:57.663Z,5.90
2018-12-12T22:57:25.350Z,5.55
2018-12-12T22:59:53.083Z,6.08
2018-12-12T23:02:22.020Z,5.37
2018-12-12T23:04:49.733Z,5.50
2018-12-12T23:07:17.488Z,5.12
2018-12-12T23:09:45.265Z,4.28
2018-12-12T23:12:13.149Z,4.70
2018-12-12T23:14:40.893Z,5.03
2018-12-12T23:17:08.654Z,5.08
2018-12-12T23:19:37.395Z,3.85
2018-12-12T23:22:05.219Z,4.90
2018-12-12T23:24:32.992Z,5.33
2018-12-12T23:27:24.852Z,6.53
2018-12-12T23:29:53.639Z,6.80
2018-12-12T23:32:22.410Z,7.80
2018-12-12T23:34:50.885Z,8.53
2018-12-12T23:37:18.617Z,7.60
2018-12-12T23:39:46.340Z,7.70
2018-12-12T23:42:38.477Z,7.50
2018-12-12T23:45:06.305Z,5.83
2018-12-12T23:47:34.253Z,5.42
2018-12-12T23:50:02.062Z,5.42
2018-12-12T23:52:29.822Z,5.17
2018-12-12T23:54:57.559Z,5.10
2018-12-12T23:57:25.815Z,4.37
2018-12-12T23:59:53.523Z,4.75
